Terminal Aerodrome Forecast
Issued by NWS Cleveland, OH

Home | Current Version | Previous Version | Text Only | Print | Product List | Glossary Off
Versions: 1 2 3 4 5 6 7 8 9 10 11 12 13 14 15 16

587
FTUS41 KCLE 271128
TAFERI
TAF
KERI 271128Z 2712/2812 05005KT P6SM SKC
     FM271700 03012KT P6SM SKC
     FM280000 06007KT P6SM BKN250=

USA.gov is the U.S. government's official web portal to all federal, state and local government web resources and services.